sensor_id;sensor_type;location;lat;lon;timestamp;P1;durP1;ratioP1;P2;durP2;ratioP2
1665;SDS011;831;48.308;14.294;2022-08-01T00:02:15;20.20;;;19.10;;
1665;SDS011;831;48.308;14.294;2022-08-01T00:04:41;20.60;;;19.40;;
1665;SDS011;831;48.308;14.294;2022-08-01T00:07:08;21.37;;;20.20;;
1665;SDS011;831;48.308;14.294;2022-08-01T00:09:34;21.70;;;20.50;;
1665;SDS011;831;48.308;14.294;2022-08-01T00:12:01;21.40;;;20.20;;
1665;SDS011;831;48.308;14.294;2022-08-01T00:14:30;20.87;;;19.67;;
1665;SDS011;831;48.308;14.294;2022-08-01T00:16:58;21.53;;;20.30;;
1665;SDS011;831;48.308;14.294;2022-08-01T00:19:24;22.40;;;21.00;;
1665;SDS011;831;48.308;14.294;2022-08-01T00:21:51;22.53;;;21.23;;
1665;SDS011;831;48.308;14.294;2022-08-01T00:24:19;22.97;;;21.57;;
1665;SDS011;831;48.308;14.294;2022-08-01T00:26:45;24.17;;;22.77;;
1665;SDS011;831;48.308;14.294;2022-08-01T00:29:12;23.20;;;21.80;;
1665;SDS011;831;48.308;14.294;2022-08-01T00:31:38;22.37;;;21.07;;
1665;SDS011;831;48.308;14.294;2022-08-01T00:34:06;23.43;;;22.07;;
1665;SDS011;831;48.308;14.294;2022-08-01T00:36:33;22.60;;;21.30;;
1665;SDS011;831;48.308;14.294;2022-08-01T00:38:59;21.93;;;20.73;;
1665;SDS011;831;48.308;14.294;2022-08-01T00:41:26;22.90;;;21.60;;
1665;SDS011;831;48.308;14.294;2022-08-01T00:43:53;22.63;;;21.30;;
1665;SDS011;831;48.308;14.294;2022-08-01T00:46:19;22.70;;;21.40;;
1665;SDS011;831;48.308;14.294;2022-08-01T00:48:46;22.97;;;21.67;;
1665;SDS011;831;48.308;14.294;2022-08-01T00:51:14;22.27;;;20.87;;
1665;SDS011;831;48.308;14.294;2022-08-01T00:53:40;21.00;;;19.80;;
1665;SDS011;831;48.308;14.294;2022-08-01T00:56:07;21.40;;;20.20;;
1665;SDS011;831;48.308;14.294;2022-08-01T00:58:34;20.27;;;19.17;;
1665;SDS011;831;48.308;14.294;2022-08-01T01:01:01;20.97;;;19.77;;
1665;SDS011;831;48.308;14.294;2022-08-01T01:03:28;20.50;;;19.40;;
1665;SDS011;831;48.308;14.294;2022-08-01T01:05:57;21.70;;;20.50;;
1665;SDS011;831;48.308;14.294;2022-08-01T01:08:32;21.77;;;20.57;;
1665;SDS011;831;48.308;14.294;2022-08-01T01:11:03;20.80;;;19.70;;
1665;SDS011;831;48.308;14.294;2022-08-01T01:13:35;21.23;;;20.07;;
1665;SDS011;831;48.308;14.294;2022-08-01T01:16:05;20.40;;;19.20;;
1665;SDS011;831;48.308;14.294;2022-08-01T01:18:32;20.57;;;19.37;;
1665;SDS011;831;48.308;14.294;2022-08-01T01:21:01;20.53;;;19.37;;
1665;SDS011;831;48.308;14.294;2022-08-01T01:23:43;20.57;;;19.43;;
1665;SDS011;831;48.308;14.294;2022-08-01T01:26:26;20.10;;;19.00;;
1665;SDS011;831;48.308;14.294;2022-08-01T01:29:00;21.10;;;19.77;;
1665;SDS011;831;48.308;14.294;2022-08-01T01:31:28;20.53;;;19.43;;
1665;SDS011;831;48.308;14.294;2022-08-01T01:33:55;20.50;;;19.30;;
1665;SDS011;831;48.308;14.294;2022-08-01T01:36:23;20.60;;;19.40;;
1665;SDS011;831;48.308;14.294;2022-08-01T01:38:51;22.73;;;21.53;;
1665;SDS011;831;48.308;14.294;2022-08-01T01:41:18;20.87;;;19.67;;
1665;SDS011;831;48.308;14.294;2022-08-01T01:43:45;21.90;;;20.60;;
1665;SDS011;831;48.308;14.294;2022-08-01T01:46:15;22.50;;;21.27;;
1665;SDS011;831;48.308;14.294;2022-08-01T01:48:43;22.33;;;20.93;;
1665;SDS011;831;48.308;14.294;2022-08-01T01:51:10;21.53;;;20.33;;
1665;SDS011;831;48.308;14.294;2022-08-01T01:53:37;21.13;;;19.77;;
1665;SDS011;831;48.308;14.294;2022-08-01T01:56:04;21.70;;;20.40;;
1665;SDS011;831;48.308;14.294;2022-08-01T01:58:31;21.47;;;20.03;;
1665;SDS011;831;48.308;14.294;2022-08-01T02:00:59;23.27;;;21.87;;
1665;SDS011;831;48.308;14.294;2022-08-01T02:03:28;22.73;;;21.43;;
1665;SDS011;831;48.308;14.294;2022-08-01T02:05:56;22.77;;;21.47;;
1665;SDS011;831;48.308;14.294;2022-08-01T02:08:23;22.67;;;21.37;;
1665;SDS011;831;48.308;14.294;2022-08-01T02:10:50;23.47;;;22.17;;
1665;SDS011;831;48.308;14.294;2022-08-01T02:13:32;21.50;;;20.30;;
1665;SDS011;831;48.308;14.294;2022-08-01T02:15:58;21.30;;;20.10;;
1665;SDS011;831;48.308;14.294;2022-08-01T02:18:25;20.00;;;18.80;;
1665;SDS011;831;48.308;14.294;2022-08-01T02:20:53;20.30;;;19.20;;
1665;SDS011;831;48.308;14.294;2022-08-01T02:23:20;20.03;;;18.93;;
1665;SDS011;831;48.308;14.294;2022-08-01T02:25:49;20.60;;;19.50;;
1665;SDS011;831;48.308;14.294;2022-08-01T02:28:17;19.50;;;18.40;;
1665;SDS011;831;48.308;14.294;2022-08-01T02:30:48;20.37;;;19.23;;
1665;SDS011;831;48.308;14.294;2022-08-01T02:33:16;19.97;;;18.93;;
1665;SDS011;831;48.308;14.294;2022-08-01T02:35:45;20.60;;;19.50;;
1665;SDS011;831;48.308;14.294;2022-08-01T02:38:14;20.33;;;19.13;;
1665;SDS011;831;48.308;14.294;2022-08-01T02:40:41;20.30;;;19.20;;
1665;SDS011;831;48.308;14.294;2022-08-01T02:43:09;19.13;;;18.13;;
1665;SDS011;831;48.308;14.294;2022-08-01T02:45:37;20.90;;;19.70;;
1665;SDS011;831;48.308;14.294;2022-08-01T02:48:06;19.13;;;18.03;;
1665;SDS011;831;48.308;14.294;2022-08-01T02:50:34;19.90;;;18.80;;
1665;SDS011;831;48.308;14.294;2022-08-01T02:53:01;18.90;;;18.00;;
1665;SDS011;831;48.308;14.294;2022-08-01T02:55:29;19.50;;;18.50;;
1665;SDS011;831;48.308;14.294;2022-08-01T02:57:58;19.47;;;18.37;;
1665;SDS011;831;48.308;14.294;2022-08-01T03:00:25;19.13;;;18.23;;
1665;SDS011;831;48.308;14.294;2022-08-01T03:02:52;19.20;;;18.20;;
1665;SDS011;831;48.308;14.294;2022-08-01T03:05:20;18.67;;;17.77;;
1665;SDS011;831;48.308;14.294;2022-08-01T03:07:47;18.20;;;17.30;;
1665;SDS011;831;48.308;14.294;2022-08-01T03:10:14;17.73;;;16.73;;
1665;SDS011;831;48.308;14.294;2022-08-01T03:12:43;17.87;;;16.97;;
1665;SDS011;831;48.308;14.294;2022-08-01T03:15:10;17.87;;;16.97;;
1665;SDS011;831;48.308;14.294;2022-08-01T03:17:38;17.33;;;16.53;;
1665;SDS011;831;48.308;14.294;2022-08-01T03:20:06;17.33;;;16.33;;
1665;SDS011;831;48.308;14.294;2022-08-01T03:22:33;17.80;;;16.80;;
1665;SDS011;831;48.308;14.294;2022-08-01T03:25:01;18.37;;;17.37;;
1665;SDS011;831;48.308;14.294;2022-08-01T03:27:28;18.57;;;17.67;;
1665;SDS011;831;48.308;14.294;2022-08-01T03:29:57;18.50;;;17.40;;
1665;SDS011;831;48.308;14.294;2022-08-01T03:32:24;19.13;;;18.13;;
1665;SDS011;831;48.308;14.294;2022-08-01T03:34:53;18.60;;;17.50;;
1665;SDS011;831;48.308;14.294;2022-08-01T03:37:21;19.10;;;18.10;;
1665;SDS011;831;48.308;14.294;2022-08-01T03:39:50;19.10;;;18.03;;
1665;SDS011;831;48.308;14.294;2022-08-01T03:42:18;19.03;;;17.77;;
1665;SDS011;831;48.308;14.294;2022-08-01T03:44:48;19.10;;;18.00;;
1665;SDS011;831;48.308;14.294;2022-08-01T03:47:21;19.30;;;18.20;;
1665;SDS011;831;48.308;14.294;2022-08-01T03:49:48;19.37;;;18.37;;
1665;SDS011;831;48.308;14.294;2022-08-01T03:52:15;18.70;;;17.67;;
1665;SDS011;831;48.308;14.294;2022-08-01T03:54:45;18.63;;;17.53;;
1665;SDS011;831;48.308;14.294;2022-08-01T03:57:12;17.30;;;16.30;;
1665;SDS011;831;48.308;14.294;2022-08-01T03:59:39;17.33;;;16.43;;
1665;SDS011;831;48.308;14.294;2022-08-01T04:02:06;17.70;;;16.80;;
1665;SDS011;831;48.308;14.294;2022-08-01T04:04:34;17.73;;;16.70;;
1665;SDS011;831;48.308;14.294;2022-08-01T04:07:01;17.50;;;16.50;;
1665;SDS011;831;48.308;14.294;2022-08-01T04:09:31;18.57;;;17.10;;
1665;SDS011;831;48.308;14.294;2022-08-01T04:11:58;19.77;;;18.17;;
1665;SDS011;831;48.308;14.294;2022-08-01T04:14:25;18.73;;;17.73;;
1665;SDS011;831;48.308;14.294;2022-08-01T04:16:52;19.00;;;17.83;;
1665;SDS011;831;48.308;14.294;2022-08-01T04:19:19;17.97;;;17.00;;
1665;SDS011;831;48.308;14.294;2022-08-01T04:21:47;18.40;;;17.30;;
1665;SDS011;831;48.308;14.294;2022-08-01T04:24:17;19.97;;;18.57;;
1665;SDS011;831;48.308;14.294;2022-08-01T04:26:45;20.43;;;19.13;;
1665;SDS011;831;48.308;14.294;2022-08-01T04:29:12;21.00;;;19.70;;
1665;SDS011;831;48.308;14.294;2022-08-01T04:31:41;21.27;;;20.00;;
1665;SDS011;831;48.308;14.294;2022-08-01T04:34:08;23.10;;;21.57;;
1665;SDS011;831;48.308;14.294;2022-08-01T04:36:36;23.00;;;21.70;;
1665;SDS011;831;48.308;14.294;2022-08-01T04:39:04;22.30;;;20.60;;
1665;SDS011;831;48.308;14.294;2022-08-01T04:41:32;22.60;;;21.10;;
1665;SDS011;831;48.308;14.294;2022-08-01T04:43:58;22.87;;;21.47;;
1665;SDS011;831;48.308;14.294;2022-08-01T04:46:26;22.50;;;21.30;;
1665;SDS011;831;48.308;14.294;2022-08-01T04:48:53;24.57;;;22.97;;
1665;SDS011;831;48.308;14.294;2022-08-01T04:51:21;24.30;;;22.73;;
1665;SDS011;831;48.308;14.294;2022-08-01T04:53:48;24.40;;;22.70;;
1665;SDS011;831;48.308;14.294;2022-08-01T04:56:17;23.97;;;22.37;;
1665;SDS011;831;48.308;14.294;2022-08-01T04:58:44;23.00;;;21.50;;
1665;SDS011;831;48.308;14.294;2022-08-01T05:01:11;23.70;;;22.10;;
1665;SDS011;831;48.308;14.294;2022-08-01T05:03:37;23.20;;;21.60;;
1665;SDS011;831;48.308;14.294;2022-08-01T05:06:04;23.30;;;21.90;;
1665;SDS011;831;48.308;14.294;2022-08-01T05:08:31;23.80;;;22.30;;
1665;SDS011;831;48.308;14.294;2022-08-01T05:10:57;25.77;;;24.17;;
1665;SDS011;831;48.308;14.294;2022-08-01T05:13:25;26.57;;;24.63;;
1665;SDS011;831;48.308;14.294;2022-08-01T05:15:52;25.53;;;23.80;;
1665;SDS011;831;48.308;14.294;2022-08-01T05:18:18;25.33;;;23.63;;
1665;SDS011;831;48.308;14.294;2022-08-01T05:20:45;24.50;;;23.00;;
1665;SDS011;831;48.308;14.294;2022-08-01T05:23:12;25.10;;;23.50;;
1665;SDS011;831;48.308;14.294;2022-08-01T05:25:38;25.80;;;24.00;;
1665;SDS011;831;48.308;14.294;2022-08-01T05:28:05;24.03;;;22.53;;
1665;SDS011;831;48.308;14.294;2022-08-01T05:30:33;25.53;;;23.83;;
1665;SDS011;831;48.308;14.294;2022-08-01T05:32:59;24.63;;;23.07;;
1665;SDS011;831;48.308;14.294;2022-08-01T05:35:26;24.40;;;22.80;;
1665;SDS011;831;48.308;14.294;2022-08-01T05:37:52;23.97;;;22.30;;
1665;SDS011;831;48.308;14.294;2022-08-01T05:40:19;23.30;;;21.90;;
1665;SDS011;831;48.308;14.294;2022-08-01T05:42:46;24.07;;;22.47;;
1665;SDS011;831;48.308;14.294;2022-08-01T05:45:12;23.90;;;22.20;;
1665;SDS011;831;48.308;14.294;2022-08-01T05:47:40;25.97;;;24.07;;
1665;SDS011;831;48.308;14.294;2022-08-01T05:50:08;23.37;;;21.93;;
1665;SDS011;831;48.308;14.294;2022-08-01T05:52:35;25.63;;;23.80;;
1665;SDS011;831;48.308;14.294;2022-08-01T05:55:02;25.13;;;23.63;;
1665;SDS011;831;48.308;14.294;2022-08-01T05:57:28;24.00;;;22.40;;
1665;SDS011;831;48.308;14.294;2022-08-01T05:59:55;23.73;;;22.33;;
1665;SDS011;831;48.308;14.294;2022-08-01T06:02:21;23.23;;;21.73;;
1665;SDS011;831;48.308;14.294;2022-08-01T06:04:49;24.13;;;22.53;;
1665;SDS011;831;48.308;14.294;2022-08-01T06:07:16;23.63;;;22.13;;
1665;SDS011;831;48.308;14.294;2022-08-01T06:09:42;24.03;;;22.63;;
1665;SDS011;831;48.308;14.294;2022-08-01T06:12:09;23.67;;;22.27;;
1665;SDS011;831;48.308;14.294;2022-08-01T06:14:35;24.30;;;22.53;;
1665;SDS011;831;48.308;14.294;2022-08-01T06:17:02;23.17;;;21.77;;
1665;SDS011;831;48.308;14.294;2022-08-01T06:19:28;24.20;;;22.67;;
1665;SDS011;831;48.308;14.294;2022-08-01T06:21:56;24.13;;;22.60;;
1665;SDS011;831;48.308;14.294;2022-08-01T06:24:23;23.80;;;22.30;;
1665;SDS011;831;48.308;14.294;2022-08-01T06:26:49;23.73;;;22.17;;
1665;SDS011;831;48.308;14.294;2022-08-01T06:29:16;23.30;;;21.80;;
1665;SDS011;831;48.308;14.294;2022-08-01T06:31:42;23.00;;;21.70;;
1665;SDS011;831;48.308;14.294;2022-08-01T06:34:09;23.53;;;22.03;;
1665;SDS011;831;48.308;14.294;2022-08-01T06:36:35;23.17;;;21.60;;
1665;SDS011;831;48.308;14.294;2022-08-01T06:39:03;23.43;;;21.80;;
1665;SDS011;831;48.308;14.294;2022-08-01T06:41:30;21.20;;;20.00;;
1665;SDS011;831;48.308;14.294;2022-08-01T06:43:56;21.50;;;20.10;;
1665;SDS011;831;48.308;14.294;2022-08-01T06:46:24;22.03;;;20.57;;
1665;SDS011;831;48.308;14.294;2022-08-01T06:48:51;21.73;;;20.53;;
1665;SDS011;831;48.308;14.294;2022-08-01T06:51:17;23.90;;;22.47;;
1665;SDS011;831;48.308;14.294;2022-08-01T06:53:45;22.87;;;21.47;;
1665;SDS011;831;48.308;14.294;2022-08-01T06:56:13;23.43;;;22.03;;
1665;SDS011;831;48.308;14.294;2022-08-01T06:58:40;22.33;;;20.83;;
1665;SDS011;831;48.308;14.294;2022-08-01T07:01:06;20.73;;;19.50;;
1665;SDS011;831;48.308;14.294;2022-08-01T07:03:33;21.33;;;20.00;;
1665;SDS011;831;48.308;14.294;2022-08-01T07:05:59;21.73;;;20.17;;
1665;SDS011;831;48.308;14.294;2022-08-01T07:08:26;21.63;;;20.33;;
1665;SDS011;831;48.308;14.294;2022-08-01T07:10:52;20.93;;;19.70;;
1665;SDS011;831;48.308;14.294;2022-08-01T07:13:20;20.77;;;19.43;;
1665;SDS011;831;48.308;14.294;2022-08-01T07:15:50;19.90;;;18.67;;
1665;SDS011;831;48.308;14.294;2022-08-01T07:18:16;18.27;;;17.17;;
1665;SDS011;831;48.308;14.294;2022-08-01T07:20:43;17.57;;;16.57;;
1665;SDS011;831;48.308;14.294;2022-08-01T07:23:11;17.27;;;16.07;;
1665;SDS011;831;48.308;14.294;2022-08-01T07:25:37;16.97;;;16.03;;
1665;SDS011;831;48.308;14.294;2022-08-01T07:28:04;15.97;;;15.17;;
1665;SDS011;831;48.308;14.294;2022-08-01T07:30:32;17.67;;;16.77;;
1665;SDS011;831;48.308;14.294;2022-08-01T07:32:59;17.87;;;16.87;;
1665;SDS011;831;48.308;14.294;2022-08-01T07:35:25;17.90;;;16.87;;
1665;SDS011;831;48.308;14.294;2022-08-01T07:37:52;17.87;;;16.90;;
1665;SDS011;831;48.308;14.294;2022-08-01T07:40:19;17.03;;;16.13;;
1665;SDS011;831;48.308;14.294;2022-08-01T07:42:46;16.90;;;15.93;;
1665;SDS011;831;48.308;14.294;2022-08-01T07:45:12;16.50;;;15.50;;
1665;SDS011;831;48.308;14.294;2022-08-01T07:47:40;16.30;;;15.50;;
1665;SDS011;831;48.308;14.294;2022-08-01T07:50:07;15.60;;;14.70;;
1665;SDS011;831;48.308;14.294;2022-08-01T07:52:34;16.23;;;15.13;;
1665;SDS011;831;48.308;14.294;2022-08-01T07:55:00;15.97;;;15.07;;
1665;SDS011;831;48.308;14.294;2022-08-01T07:57:27;15.63;;;14.83;;
1665;SDS011;831;48.308;14.294;2022-08-01T07:59:53;17.00;;;16.10;;
1665;SDS011;831;48.308;14.294;2022-08-01T08:02:20;16.17;;;15.27;;
1665;SDS011;831;48.308;14.294;2022-08-01T08:04:49;15.73;;;14.57;;
1665;SDS011;831;48.308;14.294;2022-08-01T08:07:15;15.77;;;14.97;;
1665;SDS011;831;48.308;14.294;2022-08-01T08:09:42;16.27;;;15.47;;
1665;SDS011;831;48.308;14.294;2022-08-01T08:12:08;16.17;;;15.20;;
1665;SDS011;831;48.308;14.294;2022-08-01T08:14:35;15.80;;;15.00;;
1665;SDS011;831;48.308;14.294;2022-08-01T08:17:02;16.47;;;15.47;;
1665;SDS011;831;48.308;14.294;2022-08-01T08:19:28;15.07;;;14.37;;
1665;SDS011;831;48.308;14.294;2022-08-01T08:21:59;15.67;;;14.87;;
1665;SDS011;831;48.308;14.294;2022-08-01T08:24:25;14.60;;;13.90;;
1665;SDS011;831;48.308;14.294;2022-08-01T08:26:53;14.90;;;14.20;;
1665;SDS011;831;48.308;14.294;2022-08-01T08:29:20;15.90;;;14.80;;
1665;SDS011;831;48.308;14.294;2022-08-01T08:31:46;14.97;;;14.17;;
1665;SDS011;831;48.308;14.294;2022-08-01T08:34:13;14.50;;;13.70;;
1665;SDS011;831;48.308;14.294;2022-08-01T08:36:39;14.30;;;13.60;;
1665;SDS011;831;48.308;14.294;2022-08-01T08:39:07;15.00;;;14.20;;
1665;SDS011;831;48.308;14.294;2022-08-01T08:41:34;15.03;;;14.33;;
1665;SDS011;831;48.308;14.294;2022-08-01T08:44:01;14.90;;;14.00;;
1665;SDS011;831;48.308;14.294;2022-08-01T08:46:28;15.33;;;14.27;;
1665;SDS011;831;48.308;14.294;2022-08-01T08:48:55;14.87;;;13.97;;
1665;SDS011;831;48.308;14.294;2022-08-01T08:51:22;14.70;;;14.00;;
1665;SDS011;831;48.308;14.294;2022-08-01T08:53:49;14.27;;;13.57;;
1665;SDS011;831;48.308;14.294;2022-08-01T08:56:19;14.73;;;13.93;;
1665;SDS011;831;48.308;14.294;2022-08-01T08:58:45;15.20;;;14.40;;
1665;SDS011;831;48.308;14.294;2022-08-01T09:01:12;14.83;;;13.97;;
1665;SDS011;831;48.308;14.294;2022-08-01T09:03:39;14.37;;;13.67;;
1665;SDS011;831;48.308;14.294;2022-08-01T09:06:05;14.57;;;13.87;;
1665;SDS011;831;48.308;14.294;2022-08-01T09:08:32;14.37;;;13.57;;
1665;SDS011;831;48.308;14.294;2022-08-01T09:10:59;14.00;;;13.40;;
1665;SDS011;831;48.308;14.294;2022-08-01T09:13:27;14.80;;;14.10;;
1665;SDS011;831;48.308;14.294;2022-08-01T09:15:54;14.70;;;13.90;;
1665;SDS011;831;48.308;14.294;2022-08-01T09:18:27;14.73;;;14.00;;
1665;SDS011;831;48.308;14.294;2022-08-01T09:21:10;14.63;;;13.93;;
1665;SDS011;831;48.308;14.294;2022-08-01T09:23:37;14.13;;;13.43;;
1665;SDS011;831;48.308;14.294;2022-08-01T09:26:07;14.90;;;14.10;;
1665;SDS011;831;48.308;14.294;2022-08-01T09:28:35;14.33;;;13.63;;
1665;SDS011;831;48.308;14.294;2022-08-01T09:31:06;14.00;;;13.30;;
1665;SDS011;831;48.308;14.294;2022-08-01T09:36:14;15.00;;;13.90;;
1665;SDS011;831;48.308;14.294;2022-08-01T09:38:41;14.47;;;13.77;;
1665;SDS011;831;48.308;14.294;2022-08-01T09:41:08;15.00;;;14.10;;
1665;SDS011;831;48.308;14.294;2022-08-01T09:43:37;14.00;;;13.30;;
1665;SDS011;831;48.308;14.294;2022-08-01T09:46:04;14.70;;;13.77;;
1665;SDS011;831;48.308;14.294;2022-08-01T09:48:31;15.03;;;14.27;;
1665;SDS011;831;48.308;14.294;2022-08-01T09:50:58;14.37;;;13.67;;
1665;SDS011;831;48.308;14.294;2022-08-01T09:53:25;15.00;;;14.20;;
1665;SDS011;831;48.308;14.294;2022-08-01T09:55:51;14.60;;;13.80;;
1665;SDS011;831;48.308;14.294;2022-08-01T09:58:19;14.70;;;13.90;;
1665;SDS011;831;48.308;14.294;2022-08-01T10:00:57;15.03;;;14.27;;
1665;SDS011;831;48.308;14.294;2022-08-01T10:03:25;14.40;;;13.70;;
1665;SDS011;831;48.308;14.294;2022-08-01T10:05:54;14.90;;;14.20;;
1665;SDS011;831;48.308;14.294;2022-08-01T10:08:22;15.20;;;14.30;;
1665;SDS011;831;48.308;14.294;2022-08-01T10:11:05;15.17;;;14.37;;
1665;SDS011;831;48.308;14.294;2022-08-01T10:13:32;15.10;;;14.40;;
1665;SDS011;831;48.308;14.294;2022-08-01T10:16:01;15.17;;;14.37;;
1665;SDS011;831;48.308;14.294;2022-08-01T10:18:27;14.73;;;13.93;;
1665;SDS011;831;48.308;14.294;2022-08-01T10:20:54;14.33;;;13.63;;
1665;SDS011;831;48.308;14.294;2022-08-01T10:23:21;14.63;;;13.83;;
1665;SDS011;831;48.308;14.294;2022-08-01T10:25:48;14.50;;;13.80;;
1665;SDS011;831;48.308;14.294;2022-08-01T10:28:16;15.27;;;14.30;;
1665;SDS011;831;48.308;14.294;2022-08-01T10:30:45;14.53;;;13.73;;
1665;SDS011;831;48.308;14.294;2022-08-01T10:33:13;15.30;;;14.50;;
1665;SDS011;831;48.308;14.294;2022-08-01T10:35:40;13.97;;;13.27;;
1665;SDS011;831;48.308;14.294;2022-08-01T10:38:07;14.87;;;13.93;;
1665;SDS011;831;48.308;14.294;2022-08-01T10:40:34;14.17;;;13.47;;
1665;SDS011;831;48.308;14.294;2022-08-01T10:43:01;15.10;;;14.10;;
1665;SDS011;831;48.308;14.294;2022-08-01T10:45:28;14.93;;;14.20;;
1665;SDS011;831;48.308;14.294;2022-08-01T10:47:56;14.70;;;14.00;;
1665;SDS011;831;48.308;14.294;2022-08-01T10:50:27;14.80;;;14.10;;
1665;SDS011;831;48.308;14.294;2022-08-01T10:55:49;15.07;;;14.10;;
1665;SDS011;831;48.308;14.294;2022-08-01T10:58:20;14.43;;;13.83;;
1665;SDS011;831;48.308;14.294;2022-08-01T11:00:47;14.97;;;14.10;;
1665;SDS011;831;48.308;14.294;2022-08-01T11:03:13;14.40;;;13.70;;
1665;SDS011;831;48.308;14.294;2022-08-01T11:05:41;14.37;;;13.67;;
1665;SDS011;831;48.308;14.294;2022-08-01T11:08:12;14.63;;;13.83;;
1665;SDS011;831;48.308;14.294;2022-08-01T11:10:46;14.73;;;14.00;;
1665;SDS011;831;48.308;14.294;2022-08-01T11:13:13;15.10;;;14.30;;
1665;SDS011;831;48.308;14.294;2022-08-01T11:15:40;14.90;;;14.00;;
1665;SDS011;831;48.308;14.294;2022-08-01T11:18:29;14.40;;;13.70;;
1665;SDS011;831;48.308;14.294;2022-08-01T11:20:57;14.53;;;13.60;;
1665;SDS011;831;48.308;14.294;2022-08-01T11:23:27;14.53;;;13.73;;
1665;SDS011;831;48.308;14.294;2022-08-01T11:26:06;14.17;;;13.43;;
1665;SDS011;831;48.308;14.294;2022-08-01T11:28:33;13.63;;;12.87;;
1665;SDS011;831;48.308;14.294;2022-08-01T11:33:47;14.20;;;13.37;;
1665;SDS011;831;48.308;14.294;2022-08-01T11:36:18;14.77;;;13.80;;
1665;SDS011;831;48.308;14.294;2022-08-01T11:38:46;14.63;;;13.73;;
1665;SDS011;831;48.308;14.294;2022-08-01T11:41:14;14.50;;;13.77;;
1665;SDS011;831;48.308;14.294;2022-08-01T11:43:54;13.90;;;13.23;;
1665;SDS011;831;48.308;14.294;2022-08-01T11:52:02;13.93;;;13.23;;
1665;SDS011;831;48.308;14.294;2022-08-01T11:54:30;14.23;;;13.53;;
1665;SDS011;831;48.308;14.294;2022-08-01T11:56:57;14.30;;;13.70;;
1665;SDS011;831;48.308;14.294;2022-08-01T11:59:24;13.90;;;13.20;;
1665;SDS011;831;48.308;14.294;2022-08-01T12:01:51;13.80;;;13.13;;
1665;SDS011;831;48.308;14.294;2022-08-01T12:04:17;14.70;;;13.73;;
1665;SDS011;831;48.308;14.294;2022-08-01T12:06:44;14.07;;;13.37;;
1665;SDS011;831;48.308;14.294;2022-08-01T12:09:19;13.87;;;13.17;;
1665;SDS011;831;48.308;14.294;2022-08-01T12:11:49;13.83;;;13.13;;
1665;SDS011;831;48.308;14.294;2022-08-01T12:14:19;13.80;;;12.97;;
1665;SDS011;831;48.308;14.294;2022-08-01T12:16:51;14.10;;;13.40;;
1665;SDS011;831;48.308;14.294;2022-08-01T12:19:21;14.10;;;13.40;;
1665;SDS011;831;48.308;14.294;2022-08-01T12:22:07;14.27;;;13.43;;
1665;SDS011;831;48.308;14.294;2022-08-01T12:24:35;13.70;;;13.10;;
1665;SDS011;831;48.308;14.294;2022-08-01T12:27:02;14.93;;;14.03;;
1665;SDS011;831;48.308;14.294;2022-08-01T12:29:33;14.50;;;13.70;;
1665;SDS011;831;48.308;14.294;2022-08-01T12:32:00;14.33;;;13.43;;
1665;SDS011;831;48.308;14.294;2022-08-01T12:34:26;14.07;;;13.37;;
1665;SDS011;831;48.308;14.294;2022-08-01T12:36:54;13.60;;;12.90;;
1665;SDS011;831;48.308;14.294;2022-08-01T12:39:21;14.00;;;13.20;;
1665;SDS011;831;48.308;14.294;2022-08-01T12:41:49;14.03;;;13.33;;
1665;SDS011;831;48.308;14.294;2022-08-01T12:44:15;14.13;;;13.50;;
1665;SDS011;831;48.308;14.294;2022-08-01T12:46:42;14.13;;;13.33;;
1665;SDS011;831;48.308;14.294;2022-08-01T12:49:09;14.27;;;13.57;;
1665;SDS011;831;48.308;14.294;2022-08-01T12:51:36;14.60;;;13.87;;
1665;SDS011;831;48.308;14.294;2022-08-01T12:54:03;14.10;;;13.50;;
1665;SDS011;831;48.308;14.294;2022-08-01T12:56:31;14.67;;;13.83;;
1665;SDS011;831;48.308;14.294;2022-08-01T12:58:59;14.60;;;13.90;;
1665;SDS011;831;48.308;14.294;2022-08-01T13:01:26;13.93;;;13.23;;
1665;SDS011;831;48.308;14.294;2022-08-01T13:03:59;14.50;;;13.90;;
1665;SDS011;831;48.308;14.294;2022-08-01T13:06:27;13.50;;;12.90;;
1665;SDS011;831;48.308;14.294;2022-08-01T13:08:54;13.40;;;12.80;;
1665;SDS011;831;48.308;14.294;2022-08-01T13:11:21;13.67;;;12.97;;
1665;SDS011;831;48.308;14.294;2022-08-01T13:13:48;13.30;;;12.70;;
1665;SDS011;831;48.308;14.294;2022-08-01T13:16:16;15.07;;;14.33;;
1665;SDS011;831;48.308;14.294;2022-08-01T13:18:47;14.87;;;14.17;;
1665;SDS011;831;48.308;14.294;2022-08-01T13:21:15;16.50;;;15.70;;
1665;SDS011;831;48.308;14.294;2022-08-01T13:23:42;16.00;;;14.63;;
1665;SDS011;831;48.308;14.294;2022-08-01T13:26:41;15.87;;;14.73;;
1665;SDS011;831;48.308;14.294;2022-08-01T13:29:09;15.50;;;14.60;;
1665;SDS011;831;48.308;14.294;2022-08-01T13:31:37;16.00;;;14.90;;
1665;SDS011;831;48.308;14.294;2022-08-01T13:34:04;16.20;;;15.30;;
1665;SDS011;831;48.308;14.294;2022-08-01T13:36:31;15.10;;;14.33;;
1665;SDS011;831;48.308;14.294;2022-08-01T13:38:58;15.30;;;14.50;;
1665;SDS011;831;48.308;14.294;2022-08-01T13:41:42;15.93;;;14.93;;
1665;SDS011;831;48.308;14.294;2022-08-01T13:44:09;14.67;;;13.97;;
1665;SDS011;831;48.308;14.294;2022-08-01T13:46:37;15.03;;;14.23;;
1665;SDS011;831;48.308;14.294;2022-08-01T13:49:04;14.30;;;13.60;;
1665;SDS011;831;48.308;14.294;2022-08-01T13:51:31;14.53;;;13.60;;
1665;SDS011;831;48.308;14.294;2022-08-01T13:53:57;14.43;;;13.63;;
1665;SDS011;831;48.308;14.294;2022-08-01T13:56:24;14.50;;;13.70;;
1665;SDS011;831;48.308;14.294;2022-08-01T13:58:52;14.17;;;13.40;;
1665;SDS011;831;48.308;14.294;2022-08-01T14:01:19;15.00;;;14.10;;
1665;SDS011;831;48.308;14.294;2022-08-01T14:03:47;14.27;;;13.47;;
1665;SDS011;831;48.308;14.294;2022-08-01T14:06:13;13.70;;;13.10;;
1665;SDS011;831;48.308;14.294;2022-08-01T14:08:41;13.63;;;13.03;;
1665;SDS011;831;48.308;14.294;2022-08-01T14:11:08;13.50;;;12.90;;
1665;SDS011;831;48.308;14.294;2022-08-01T14:13:35;13.37;;;12.60;;
1665;SDS011;831;48.308;14.294;2022-08-01T14:16:03;12.90;;;12.20;;
1665;SDS011;831;48.308;14.294;2022-08-01T14:18:30;12.90;;;12.30;;
1665;SDS011;831;48.308;14.294;2022-08-01T14:20:58;12.67;;;12.07;;
1665;SDS011;831;48.308;14.294;2022-08-01T14:23:25;12.50;;;11.80;;
1665;SDS011;831;48.308;14.294;2022-08-01T14:25:51;12.40;;;11.80;;
1665;SDS011;831;48.308;14.294;2022-08-01T14:28:18;12.67;;;11.97;;
1665;SDS011;831;48.308;14.294;2022-08-01T14:30:45;12.30;;;11.70;;
1665;SDS011;831;48.308;14.294;2022-08-01T14:33:11;12.23;;;11.63;;
1665;SDS011;831;48.308;14.294;2022-08-01T14:35:38;12.57;;;11.97;;
1665;SDS011;831;48.308;14.294;2022-08-01T14:38:06;13.17;;;12.57;;
1665;SDS011;831;48.308;14.294;2022-08-01T14:40:32;12.90;;;12.30;;
1665;SDS011;831;48.308;14.294;2022-08-01T14:42:59;12.60;;;12.00;;
1665;SDS011;831;48.308;14.294;2022-08-01T14:45:26;12.40;;;11.90;;
1665;SDS011;831;48.308;14.294;2022-08-01T14:47:53;12.93;;;12.30;;
1665;SDS011;831;48.308;14.294;2022-08-01T14:50:20;12.90;;;12.30;;
1665;SDS011;831;48.308;14.294;2022-08-01T14:52:46;12.63;;;12.03;;
1665;SDS011;831;48.308;14.294;2022-08-01T14:55:14;13.43;;;12.73;;
1665;SDS011;831;48.308;14.294;2022-08-01T14:57:41;12.63;;;12.03;;
1665;SDS011;831;48.308;14.294;2022-08-01T15:00:08;12.63;;;12.03;;
1665;SDS011;831;48.308;14.294;2022-08-01T15:02:36;12.70;;;12.10;;
1665;SDS011;831;48.308;14.294;2022-08-01T15:05:03;12.50;;;11.90;;
1665;SDS011;831;48.308;14.294;2022-08-01T15:07:30;12.87;;;12.07;;